createdAt,value
2023-04-15T00:00:29.725Z,3528.00
2023-04-15T00:01:29.736Z,3547.00
2023-04-15T00:02:29.876Z,3534.00
2023-04-15T00:03:30.084Z,3527.00
2023-04-15T00:04:29.863Z,3524.00
2023-04-15T00:05:29.748Z,3520.00
2023-04-15T00:06:29.760Z,3515.00
2023-04-15T00:07:29.750Z,3524.00
2023-04-15T00:08:29.757Z,3519.00
2023-04-15T00:09:29.745Z,3511.00
2023-04-15T00:10:29.742Z,3499.00
2023-04-15T00:11:29.751Z,3499.00
2023-04-15T00:12:29.758Z,3488.00
2023-04-15T00:13:29.771Z,3497.00
2023-04-15T00:14:29.779Z,3507.00
2023-04-15T00:15:29.767Z,3507.00
2023-04-15T00:16:29.816Z,3507.00
2023-04-15T00:17:29.810Z,3512.00
2023-04-15T00:18:29.775Z,3510.00
2023-04-15T00:19:29.781Z,3501.00
2023-04-15T00:20:29.779Z,3499.00
2023-04-15T00:21:29.783Z,3495.00
2023-04-15T00:22:29.785Z,3483.00
2023-04-15T00:23:29.788Z,3492.00
2023-04-15T00:24:29.786Z,3489.00
2023-04-15T00:25:29.801Z,3483.00
2023-04-15T00:26:29.849Z,3479.00
2023-04-15T00:27:29.916Z,3490.00
2023-04-15T00:28:29.956Z,3475.00
2023-04-15T00:29:30.014Z,3478.00
2023-04-15T00:30:30.248Z,3478.00
2023-04-15T00:31:30.205Z,3461.00
2023-04-15T00:32:30.203Z,3469.00
2023-04-15T00:33:30.270Z,3475.00
2023-04-15T00:34:30.306Z,3468.00
2023-04-15T00:35:30.374Z,3453.00
2023-04-15T00:36:30.440Z,3467.00
2023-04-15T00:37:30.488Z,3447.00
2023-04-15T00:38:30.553Z,3447.00
2023-04-15T00:39:30.605Z,3437.00
2023-04-15T00:40:30.665Z,3443.00
2023-04-15T00:41:30.724Z,3441.00
2023-04-15T00:42:30.801Z,3435.00
2023-04-15T00:43:30.862Z,3429.00
2023-04-15T00:44:30.909Z,3434.00
2023-04-15T00:45:31.040Z,3431.00
2023-04-15T00:46:30.981Z,3432.00
2023-04-15T00:47:30.990Z,3434.00
2023-04-15T00:48:30.985Z,3435.00
2023-04-15T00:49:30.980Z,3438.00
2023-04-15T00:50:30.986Z,3424.00
2023-04-15T00:51:31.002Z,3423.00
2023-04-15T00:52:30.995Z,3440.00
2023-04-15T00:53:31.013Z,3441.00
2023-04-15T00:54:31.010Z,3425.00
2023-04-15T00:55:31.057Z,3416.00
2023-04-15T00:56:31.105Z,3419.00
2023-04-15T00:57:31.176Z,3418.00
2023-04-15T00:58:31.238Z,3405.00
2023-04-15T00:59:31.304Z,3408.00
2023-04-15T01:00:31.360Z,3396.00
2023-04-15T01:01:31.453Z,3412.00
2023-04-15T01:02:31.712Z,3407.00
2023-04-15T01:03:31.614Z,3409.00
2023-04-15T01:04:31.734Z,3405.00
2023-04-15T01:05:31.661Z,3407.00
2023-04-15T01:06:31.723Z,3389.00
2023-04-15T01:07:31.800Z,3400.00
2023-04-15T01:08:31.894Z,3381.00
2023-04-15T01:09:31.930Z,3378.00
2023-04-15T01:10:32.005Z,3391.00
2023-04-15T01:11:32.060Z,3381.00
2023-04-15T01:12:32.145Z,3381.00
2023-04-15T01:13:32.176Z,3383.00
2023-04-15T01:14:32.253Z,3371.00
2023-04-15T01:15:32.311Z,3385.00
2023-04-15T01:16:32.434Z,3362.00
2023-04-15T01:17:32.505Z,3371.00
2023-04-15T01:18:32.501Z,3367.00
2023-04-15T01:19:32.595Z,3375.00
2023-04-15T01:20:32.631Z,3370.00
2023-04-15T01:21:32.696Z,3357.00
2023-04-15T01:22:32.766Z,3350.00
2023-04-15T01:23:32.842Z,3341.00
2023-04-15T01:24:32.902Z,3352.00
2023-04-15T01:25:32.980Z,3348.00
2023-04-15T01:26:33.037Z,3354.00
2023-04-15T01:27:33.098Z,3341.00
2023-04-15T01:28:33.160Z,3347.00
2023-04-15T01:29:33.233Z,3332.00
2023-04-15T01:30:33.292Z,3341.00
2023-04-15T01:31:33.396Z,3335.00
2023-04-15T01:32:33.472Z,3317.00
2023-04-15T01:33:33.506Z,3325.00
2023-04-15T01:34:35.617Z,3327.00
2023-04-15T01:35:33.620Z,3315.00
2023-04-15T01:36:33.678Z,3323.00
2023-04-15T01:37:33.758Z,3312.00
2023-04-15T01:38:33.897Z,3311.00
2023-04-15T01:39:33.901Z,3315.00
2023-04-15T01:40:33.953Z,3312.00
2023-04-15T01:41:34.029Z,3305.00
2023-04-15T01:42:34.096Z,3317.00
2023-04-15T01:43:34.158Z,3308.00
2023-04-15T01:44:34.240Z,3313.00
2023-04-15T01:45:34.307Z,3304.00
2023-04-15T01:46:34.411Z,3304.00
2023-04-15T01:47:34.489Z,3298.00
2023-04-15T01:48:34.518Z,3303.00
2023-04-15T01:49:34.603Z,3285.00
2023-04-15T01:50:34.672Z,3295.00
2023-04-15T01:51:34.743Z,3298.00
2023-04-15T01:52:34.816Z,3292.00
2023-04-15T01:53:34.899Z,3280.00
2023-04-15T01:54:34.974Z,3286.00
2023-04-15T01:55:35.052Z,3267.00
2023-04-15T01:56:35.115Z,3269.00
2023-04-15T01:57:35.187Z,3287.00
2023-04-15T01:58:35.258Z,3289.00
2023-04-15T01:59:35.322Z,3282.00
2023-04-15T02:00:35.451Z,3257.00
2023-04-15T02:01:35.458Z,3276.00
2023-04-15T02:02:35.687Z,3249.00
2023-04-15T02:03:35.652Z,3255.00
2023-04-15T02:04:35.673Z,3266.00
2023-04-15T02:05:35.743Z,3256.00
2023-04-15T02:06:35.812Z,3254.00
2023-04-15T02:07:35.885Z,3241.00
2023-04-15T02:08:35.966Z,3239.00
2023-04-15T02:09:36.048Z,3245.00
2023-04-15T02:10:36.111Z,3245.00
2023-04-15T02:11:36.165Z,3229.00
2023-04-15T02:12:36.220Z,3250.00
2023-04-15T02:13:36.333Z,3236.00
2023-04-15T02:14:36.338Z,3243.00
2023-04-15T02:15:36.392Z,3225.00
2023-04-15T02:16:36.540Z,3227.00
2023-04-15T02:17:36.570Z,3227.00
2023-04-15T02:18:36.593Z,3231.00
2023-04-15T02:19:36.681Z,3216.00
2023-04-15T02:20:36.723Z,3216.00
2023-04-15T02:21:36.802Z,3207.00
2023-04-15T02:22:36.874Z,3211.00
2023-04-15T02:23:36.943Z,3199.00
2023-04-15T02:24:37.005Z,3203.00
2023-04-15T02:25:37.082Z,3213.00
2023-04-15T02:26:37.140Z,3210.00
2023-04-15T02:27:37.207Z,3206.00
2023-04-15T02:28:37.260Z,3200.00
2023-04-15T02:29:37.318Z,3193.00
2023-04-15T02:30:37.362Z,3207.00
2023-04-15T02:31:37.442Z,3185.00
2023-04-15T02:32:37.522Z,3192.00
2023-04-15T02:33:37.545Z,3186.00
2023-04-15T02:34:37.632Z,3176.00
2023-04-15T02:35:37.699Z,3174.00
2023-04-15T02:36:37.764Z,3171.00
2023-04-15T02:37:37.839Z,3182.00
2023-04-15T02:38:37.916Z,3183.00
2023-04-15T02:39:37.990Z,3167.00
2023-04-15T02:40:38.049Z,3159.00
2023-04-15T02:41:38.116Z,3163.00
2023-04-15T02:42:38.197Z,3161.00
2023-04-15T02:43:38.265Z,3159.00
2023-04-15T02:44:38.374Z,3145.00
2023-04-15T02:45:38.473Z,3167.00
2023-04-15T02:46:38.503Z,3155.00
2023-04-15T02:47:38.585Z,3156.00
2023-04-15T02:48:38.625Z,3159.00
2023-04-15T02:49:38.690Z,3141.00
2023-04-15T02:50:38.779Z,3151.00
2023-04-15T02:51:38.848Z,3158.00
2023-04-15T02:52:38.920Z,3143.00
2023-04-15T02:53:38.997Z,3151.00
2023-04-15T02:54:39.073Z,3137.00
2023-04-15T02:55:39.128Z,3136.00
2023-04-15T02:56:39.205Z,3130.00
2023-04-15T02:57:39.294Z,3136.00
2023-04-15T02:58:39.347Z,3128.00
2023-04-15T02:59:39.439Z,3082.00
2023-04-15T03:00:39.499Z,2989.00
2023-04-15T03:01:39.637Z,2954.00
2023-04-15T03:02:39.709Z,2888.00
2023-04-15T03:03:39.675Z,2862.00
2023-04-15T03:04:39.620Z,2837.00
2023-04-15T03:05:39.628Z,2757.00
2023-04-15T03:06:39.620Z,2718.00
2023-04-15T03:07:39.623Z,2664.00
2023-04-15T03:08:39.643Z,2629.00
2023-04-15T03:09:39.648Z,2568.00
2023-04-15T03:10:39.666Z,2528.00
2023-04-15T03:11:39.666Z,2473.00
2023-04-15T03:12:39.664Z,2420.00
2023-04-15T03:13:39.676Z,2396.00
2023-04-15T03:14:39.670Z,2346.00
2023-04-15T03:15:39.690Z,2298.00
2023-04-15T03:16:39.684Z,2261.00
2023-04-15T03:17:39.729Z,2221.00
2023-04-15T03:18:39.742Z,2188.00
2023-04-15T03:19:39.812Z,2160.00
2023-04-15T03:20:39.948Z,2112.00
2023-04-15T03:21:39.972Z,2075.00
2023-04-15T03:22:40.034Z,2043.00
2023-04-15T03:23:40.088Z,1999.00
2023-04-15T03:24:40.133Z,1967.00
2023-04-15T03:25:40.208Z,1932.00
2023-04-15T03:26:40.277Z,1901.00
2023-04-15T03:27:40.305Z,1874.00
2023-04-15T03:28:40.315Z,1843.00
2023-04-15T03:29:40.396Z,1818.00
2023-04-15T03:30:40.425Z,1794.00
2023-04-15T03:31:40.520Z,1763.00
2023-04-15T03:32:40.527Z,1741.00
2023-04-15T03:33:40.491Z,1718.00
2023-04-15T03:34:40.493Z,1708.00
2023-04-15T03:35:40.540Z,1672.00
2023-04-15T03:36:40.539Z,1649.00
2023-04-15T03:37:40.533Z,1634.00
2023-04-15T03:38:40.537Z,1620.00
2023-04-15T03:39:40.547Z,1606.00
2023-04-15T03:40:40.577Z,1590.00
2023-04-15T03:41:40.580Z,1573.00
2023-04-15T03:42:40.608Z,1568.00
2023-04-15T03:43:40.604Z,1552.00
2023-04-15T03:44:40.613Z,1552.00
2023-04-15T03:45:40.612Z,1539.00
2023-04-15T03:46:40.668Z,1514.00
2023-04-15T03:47:40.765Z,1506.00
2023-04-15T03:48:40.616Z,1495.00
2023-04-15T03:49:40.615Z,1477.00
2023-04-15T03:50:40.624Z,1476.00
2023-04-15T03:51:40.638Z,1456.00
2023-04-15T03:52:40.635Z,1447.00
2023-04-15T03:53:40.624Z,1430.00
2023-04-15T03:54:40.638Z,1411.00
2023-04-15T03:55:40.630Z,1396.00
2023-04-15T03:56:40.632Z,1381.00
2023-04-15T03:57:40.634Z,1370.00
2023-04-15T03:58:40.633Z,1353.00
2023-04-15T03:59:40.632Z,1339.00
2023-04-15T04:00:40.652Z,1332.00
2023-04-15T04:01:40.656Z,1309.00
2023-04-15T04:02:40.915Z,1300.00
2023-04-15T04:03:40.760Z,1292.00
2023-04-15T04:04:40.700Z,1284.00
2023-04-15T04:05:40.664Z,1291.00
2023-04-15T04:06:40.675Z,1267.00
2023-04-15T04:07:40.685Z,1273.00
2023-04-15T04:08:40.714Z,1270.00
2023-04-15T04:09:40.741Z,1251.00
2023-04-15T04:10:40.800Z,1239.00
2023-04-15T04:11:40.811Z,1222.00
2023-04-15T04:12:40.868Z,1211.00
2023-04-15T04:13:40.899Z,1183.00
2023-04-15T04:14:40.948Z,1174.00
2023-04-15T04:15:40.975Z,1156.00
2023-04-15T04:16:41.033Z,1151.00
2023-04-15T04:17:41.065Z,1149.00
2023-04-15T04:18:41.054Z,1132.00
2023-04-15T04:19:41.089Z,1107.00
2023-04-15T04:20:41.125Z,1076.00
2023-04-15T04:21:41.150Z,1040.00
2023-04-15T04:22:41.185Z,1002.00
2023-04-15T04:23:41.220Z,984.00
2023-04-15T04:24:41.263Z,952.00
2023-04-15T04:25:41.293Z,961.00
2023-04-15T04:26:41.325Z,941.00
2023-04-15T04:27:41.361Z,942.00
2023-04-15T04:28:41.398Z,924.00
2023-04-15T04:29:41.434Z,938.00
2023-04-15T04:30:41.480Z,935.00
2023-04-15T04:31:41.587Z,921.00
2023-04-15T04:32:41.583Z,921.00
2023-04-15T04:33:41.584Z,915.00
2023-04-15T04:34:41.649Z,907.00
2023-04-15T04:35:41.661Z,907.00
2023-04-15T04:36:41.700Z,901.00
2023-04-15T04:37:41.748Z,883.00
2023-04-15T04:38:41.785Z,872.00
2023-04-15T04:39:41.834Z,867.00
2023-04-15T04:40:41.861Z,867.00
2023-04-15T04:41:41.895Z,862.00
2023-04-15T04:42:41.942Z,847.00
2023-04-15T04:43:41.993Z,836.00
2023-04-15T04:44:42.031Z,821.00
2023-04-15T04:45:42.119Z,818.00
2023-04-15T04:46:42.115Z,819.00
2023-04-15T04:47:42.236Z,821.00
2023-04-15T04:48:42.224Z,818.00
2023-04-15T04:49:42.311Z,821.00
2023-04-15T04:50:42.332Z,822.00
2023-04-15T04:51:42.371Z,821.00
2023-04-15T04:52:42.425Z,816.00
2023-04-15T04:53:42.474Z,797.00
2023-04-15T04:54:42.532Z,784.00
2023-04-15T04:55:42.598Z,787.00
2023-04-15T04:56:42.631Z,756.00
2023-04-15T04:57:42.697Z,756.00
2023-04-15T04:58:42.747Z,732.00
2023-04-15T04:59:42.773Z,730.00
2023-04-15T05:00:42.779Z,700.00
2023-04-15T05:01:42.892Z,676.00
2023-04-15T05:02:42.877Z,670.00
2023-04-15T05:03:42.899Z,667.00
2023-04-15T05:04:42.796Z,666.00
2023-04-15T05:05:42.805Z,661.00
2023-04-15T05:06:42.828Z,662.00
2023-04-15T05:07:42.834Z,665.00
2023-04-15T05:08:42.829Z,658.00
2023-04-15T05:09:42.841Z,653.00
2023-04-15T05:10:42.844Z,651.00
2023-04-15T05:11:42.891Z,658.00
2023-04-15T05:12:42.877Z,649.00
2023-04-15T05:13:42.872Z,651.00
2023-04-15T05:14:42.884Z,657.00
2023-04-15T05:15:42.969Z,665.00
2023-04-15T05:16:42.917Z,665.00
2023-04-15T05:17:42.935Z,684.00
2023-04-15T05:18:42.989Z,694.00
2023-04-15T05:19:43.076Z,702.00
2023-04-15T05:20:43.135Z,712.00
2023-04-15T05:21:43.179Z,723.00
2023-04-15T05:22:43.239Z,740.00
2023-04-15T05:23:43.292Z,752.00
2023-04-15T05:24:43.369Z,764.00
2023-04-15T05:25:43.419Z,773.00
2023-04-15T05:26:43.485Z,774.00
2023-04-15T05:27:43.518Z,774.00
2023-04-15T05:28:43.511Z,775.00
2023-04-15T05:29:43.514Z,785.00
2023-04-15T05:30:43.533Z,799.00
2023-04-15T05:31:43.571Z,823.00
2023-04-15T05:32:43.634Z,838.00
2023-04-15T05:33:43.551Z,848.00
2023-04-15T05:34:43.564Z,844.00
2023-04-15T05:35:43.565Z,833.00
2023-04-15T05:36:43.604Z,844.00
2023-04-15T05:37:43.673Z,836.00
2023-04-15T05:38:43.670Z,836.00
2023-04-15T05:39:43.679Z,836.00
2023-04-15T05:40:43.692Z,826.00
2023-04-15T05:41:43.716Z,824.00
2023-04-15T05:42:43.716Z,828.00
2023-04-15T05:43:43.741Z,810.00
2023-04-15T05:44:43.742Z,805.00
2023-04-15T05:45:43.747Z,799.00
2023-04-15T05:46:43.864Z,772.00
2023-04-15T05:47:43.904Z,759.00
2023-04-15T05:48:43.937Z,743.00
2023-04-15T05:49:43.984Z,747.00
2023-04-15T05:50:44.078Z,739.00
2023-04-15T05:51:44.141Z,732.00
2023-04-15T05:52:44.198Z,726.00
2023-04-15T05:53:44.272Z,742.00
2023-04-15T05:54:44.339Z,710.00
2023-04-15T05:55:44.406Z,704.00
2023-04-15T05:56:44.479Z,695.00
2023-04-15T05:57:44.529Z,694.00
2023-04-15T05:58:44.598Z,668.00
2023-04-15T05:59:44.663Z,665.00
2023-04-15T06:00:44.732Z,668.00
2023-04-15T06:01:44.809Z,664.00
2023-04-15T06:02:45.031Z,660.00
2023-04-15T06:03:45.056Z,652.00
2023-04-15T06:04:45.087Z,658.00
2023-04-15T06:05:45.113Z,660.00
2023-04-15T06:06:45.187Z,660.00
2023-04-15T06:07:46.700Z,666.00
2023-04-15T06:08:45.251Z,664.00
2023-04-15T06:09:45.259Z,664.00
2023-04-15T06:10:45.280Z,660.00
2023-04-15T06:11:45.294Z,662.00
2023-04-15T06:12:45.313Z,662.00
2023-04-15T06:13:45.324Z,656.00
2023-04-15T06:14:45.331Z,657.00
2023-04-15T06:15:45.340Z,654.00
2023-04-15T06:16:45.363Z,647.00
2023-04-15T06:17:45.372Z,639.00
2023-04-15T06:18:45.418Z,635.00
2023-04-15T06:19:45.511Z,631.00
2023-04-15T06:20:45.560Z,621.00
2023-04-15T06:21:45.627Z,619.00
2023-04-15T06:22:45.691Z,618.00
2023-04-15T06:23:45.781Z,615.00
2023-04-15T06:24:45.838Z,607.00
2023-04-15T06:25:45.925Z,603.00
2023-04-15T06:26:46.006Z,602.00
2023-04-15T06:27:46.062Z,599.00
2023-04-15T06:28:46.142Z,594.00
2023-04-15T06:29:46.231Z,588.00
2023-04-15T06:30:46.268Z,591.00
2023-04-15T06:31:46.394Z,591.00
2023-04-15T06:32:46.445Z,588.00
2023-04-15T06:33:46.482Z,581.00
2023-04-15T06:34:46.548Z,576.00
2023-04-15T06:35:46.618Z,571.00
2023-04-15T06:36:46.683Z,569.00
2023-04-15T06:37:46.762Z,551.00
2023-04-15T06:38:46.808Z,537.00
2023-04-15T06:39:46.871Z,521.00
2023-04-15T06:40:46.940Z,513.00
2023-04-15T06:41:47.008Z,500.00
2023-04-15T06:42:47.081Z,500.00
2023-04-15T06:43:47.128Z,502.00
2023-04-15T06:44:47.153Z,493.00
2023-04-15T06:45:47.210Z,481.00
2023-04-15T06:46:47.159Z,473.00
2023-04-15T06:47:47.158Z,459.00
2023-04-15T06:48:47.155Z,454.00
2023-04-15T06:49:47.163Z,500.00
2023-04-15T06:50:47.184Z,500.00
2023-04-15T06:51:47.182Z,500.00
2023-04-15T06:52:47.189Z,500.00
2023-04-15T06:53:47.192Z,500.00
2023-04-15T06:54:47.240Z,500.00
2023-04-15T06:55:47.308Z,500.00
2023-04-15T06:56:47.364Z,500.00
2023-04-15T06:57:47.426Z,501.00
2023-04-15T06:58:47.476Z,503.00
2023-04-15T06:59:47.538Z,505.00
2023-04-15T07:00:47.623Z,500.00
2023-04-15T07:01:47.704Z,501.00
2023-04-15T07:02:47.876Z,500.00
2023-04-15T07:03:47.817Z,504.00
2023-04-15T07:04:47.857Z,500.00
2023-04-15T07:05:47.916Z,509.00
2023-04-15T07:06:47.972Z,504.00
2023-04-15T07:07:48.029Z,499.00
2023-04-15T07:08:48.074Z,500.00
2023-04-15T07:09:48.138Z,505.00
2023-04-15T07:10:48.218Z,504.00
2023-04-15T07:11:48.249Z,500.00
2023-04-15T07:12:48.311Z,500.00
2023-04-15T07:13:48.354Z,499.00
2023-04-15T07:14:48.410Z,504.00
2023-04-15T07:15:48.459Z,500.00
2023-04-15T07:16:48.608Z,500.00
2023-04-15T07:17:48.603Z,500.00
2023-04-15T07:18:48.629Z,503.00
2023-04-15T07:19:48.684Z,500.00
2023-04-15T07:20:48.739Z,501.00
2023-04-15T07:21:48.796Z,499.00
2023-04-15T07:22:48.833Z,502.00
2023-04-15T07:23:48.915Z,500.00
2023-04-15T07:24:48.888Z,482.00
2023-04-15T07:25:48.902Z,456.00
2023-04-15T07:26:48.910Z,437.00
2023-04-15T07:27:48.919Z,420.00
2023-04-15T07:28:48.920Z,403.00
2023-04-15T07:29:48.922Z,448.00
2023-04-15T07:30:48.968Z,493.00
2023-04-15T07:31:48.949Z,502.00
2023-04-15T07:32:48.974Z,504.00
2023-04-15T07:33:48.951Z,500.00
2023-04-15T07:34:48.940Z,509.00
2023-04-15T07:35:48.951Z,512.00
2023-04-15T07:36:48.955Z,511.00
2023-04-15T07:37:48.950Z,507.00
2023-04-15T07:38:48.955Z,506.00
2023-04-15T07:39:48.958Z,500.00
2023-04-15T07:40:48.981Z,513.00
2023-04-15T07:41:49.036Z,513.00
2023-04-15T07:42:49.058Z,501.00
2023-04-15T07:43:49.083Z,500.00
2023-04-15T07:44:49.108Z,500.00
2023-04-15T07:45:49.182Z,502.00
2023-04-15T07:46:49.185Z,509.00
2023-04-15T07:47:49.247Z,500.00
2023-04-15T07:48:49.265Z,503.00
2023-04-15T07:49:49.311Z,514.00
2023-04-15T07:50:49.318Z,529.00
2023-04-15T07:51:49.362Z,524.00
2023-04-15T07:52:49.409Z,515.00
2023-04-15T07:53:49.442Z,511.00
2023-04-15T07:54:49.483Z,500.00
2023-04-15T07:55:49.518Z,503.00
2023-04-15T07:56:49.547Z,508.00
2023-04-15T07:57:49.591Z,506.00
2023-04-15T07:58:49.598Z,499.00
2023-04-15T07:59:49.626Z,501.00
2023-04-15T08:00:49.701Z,500.00
2023-04-15T08:01:49.693Z,505.00
2023-04-15T08:02:49.918Z,503.00
2023-04-15T08:03:49.832Z,501.00
2023-04-15T08:04:49.809Z,501.00
2023-04-15T08:05:49.774Z,500.00
2023-04-15T08:06:49.809Z,503.00
2023-04-15T08:07:49.840Z,502.00
2023-04-15T08:08:49.850Z,506.00
2023-04-15T08:09:49.878Z,515.00
2023-04-15T08:10:51.400Z,510.00
2023-04-15T08:11:50.102Z,509.00
2023-04-15T08:12:50.143Z,501.00
2023-04-15T08:13:50.155Z,500.00
2023-04-15T08:14:50.157Z,500.00
2023-04-15T08:15:50.230Z,500.00
2023-04-15T08:16:50.212Z,500.00
2023-04-15T08:17:50.269Z,507.00
2023-04-15T08:18:50.234Z,500.00
2023-04-15T08:19:50.263Z,500.00
2023-04-15T08:20:50.253Z,501.00
2023-04-15T08:21:50.285Z,500.00
2023-04-15T08:22:50.290Z,502.00
2023-04-15T08:23:50.294Z,502.00
2023-04-15T08:24:50.294Z,500.00
2023-04-15T08:25:50.309Z,503.00
2023-04-15T08:26:50.321Z,511.00
2023-04-15T08:27:50.330Z,519.00
2023-04-15T08:28:50.348Z,509.00
2023-04-15T08:29:50.369Z,504.00
2023-04-15T08:30:50.381Z,500.00
2023-04-15T08:31:50.424Z,504.00
2023-04-15T08:32:50.421Z,500.00
2023-04-15T08:33:50.418Z,505.00
2023-04-15T08:34:50.425Z,503.00
2023-04-15T08:35:50.440Z,502.00
2023-04-15T08:36:50.459Z,500.00
2023-04-15T08:37:50.463Z,500.00
2023-04-15T08:38:50.487Z,505.00
2023-04-15T08:39:50.471Z,500.00
2023-04-15T08:40:50.475Z,501.00
2023-04-15T08:41:50.483Z,504.00
2023-04-15T08:42:50.502Z,506.00
2023-04-15T08:43:50.478Z,509.00
2023-04-15T08:44:50.496Z,510.00
2023-04-15T08:45:50.500Z,514.00
2023-04-15T08:46:50.559Z,523.00
2023-04-15T08:47:50.675Z,527.00
2023-04-15T08:48:50.624Z,534.00
2023-04-15T08:49:50.672Z,541.00
2023-04-15T08:50:50.716Z,540.00
2023-04-15T08:51:50.787Z,538.00
2023-04-15T08:52:50.851Z,540.00
2023-04-15T08:53:50.837Z,540.00
2023-04-15T08:54:50.844Z,541.00
2023-04-15T08:55:50.847Z,549.00
2023-04-15T08:56:50.872Z,561.00
2023-04-15T08:57:50.830Z,574.00
2023-04-15T08:58:50.822Z,541.00
2023-04-15T08:59:50.823Z,545.00
2023-04-15T09:00:50.822Z,553.00
2023-04-15T09:01:50.858Z,575.00
2023-04-15T09:02:50.971Z,632.00
2023-04-15T09:03:51.005Z,689.00
2023-04-15T09:04:50.800Z,807.00
2023-04-15T09:05:52.700Z,898.00
2023-04-15T09:06:50.786Z,980.00
2023-04-15T09:07:50.837Z,1067.00
2023-04-15T09:08:50.775Z,1176.00
2023-04-15T09:09:50.762Z,1265.00
2023-04-15T09:10:50.748Z,1374.00
2023-04-15T09:11:50.799Z,1490.00
2023-04-15T09:12:50.852Z,1578.00
2023-04-15T09:13:50.901Z,1697.00
2023-04-15T09:14:50.946Z,1785.00
2023-04-15T09:15:51.009Z,1848.00
2023-04-15T09:16:51.084Z,1947.00
2023-04-15T09:17:51.143Z,2040.00
2023-04-15T09:18:51.168Z,2106.00
2023-04-15T09:19:51.189Z,2171.00
2023-04-15T09:20:51.228Z,2263.00
2023-04-15T09:21:51.261Z,2329.00
2023-04-15T09:22:51.296Z,2390.00
2023-04-15T09:23:51.328Z,2458.00
2023-04-15T09:24:51.344Z,2506.00
2023-04-15T09:25:51.365Z,2577.00
2023-04-15T09:26:51.382Z,2626.00
2023-04-15T09:27:51.406Z,2677.00
2023-04-15T09:28:51.420Z,2732.00
2023-04-15T09:29:51.428Z,2793.00
2023-04-15T09:30:51.452Z,2870.00
2023-04-15T09:31:51.448Z,2894.00
2023-04-15T09:32:51.473Z,2897.00
2023-04-15T09:33:51.433Z,2912.00
2023-04-15T09:34:51.407Z,2953.00
2023-04-15T09:35:51.394Z,3014.00
2023-04-15T09:36:51.381Z,3127.00
2023-04-15T09:37:51.376Z,3172.00
2023-04-15T09:38:51.376Z,3213.00
2023-04-15T09:39:51.356Z,3265.00
2023-04-15T09:40:51.340Z,3290.00
2023-04-15T09:41:51.320Z,3333.00
2023-04-15T09:42:51.312Z,3363.00
2023-04-15T09:43:51.295Z,3398.00
2023-04-15T09:44:51.281Z,3435.00
2023-04-15T09:45:51.295Z,3474.00
2023-04-15T09:46:51.271Z,3501.00
2023-04-15T09:47:51.304Z,3544.00
2023-04-15T09:48:51.227Z,3563.00
2023-04-15T09:49:51.262Z,3608.00
2023-04-15T09:50:51.209Z,3621.00
2023-04-15T09:52:04.084Z,3660.00
2023-04-15T09:52:52.197Z,3661.00
2023-04-15T09:53:51.181Z,3668.00
2023-04-15T09:54:51.171Z,3685.00
2023-04-15T09:55:51.163Z,3723.00
2023-04-15T09:56:51.154Z,3783.00
2023-04-15T09:57:51.122Z,3812.00
2023-04-15T09:58:51.126Z,3825.00
2023-04-15T09:59:51.122Z,3854.00
2023-04-15T10:00:51.132Z,3869.00
2023-04-15T10:01:51.182Z,3890.00
2023-04-15T10:02:51.127Z,3905.00
2023-04-15T10:03:51.140Z,3926.00
2023-04-15T10:04:51.077Z,3947.00
2023-04-15T10:05:51.066Z,3966.00
2023-04-15T10:06:51.045Z,3970.00
2023-04-15T10:07:51.037Z,4004.00
2023-04-15T10:08:51.061Z,4012.00
2023-04-15T10:09:51.039Z,4016.00
2023-04-15T10:10:51.020Z,4032.00
2023-04-15T10:11:51.068Z,4058.00
2023-04-15T10:12:51.093Z,4061.00
2023-04-15T10:13:51.150Z,4078.00
2023-04-15T10:14:51.175Z,4095.00
2023-04-15T10:15:51.238Z,4090.00
2023-04-15T10:16:51.240Z,4101.00
2023-04-15T10:17:51.459Z,4125.00
2023-04-15T10:18:51.401Z,4130.00
2023-04-15T10:19:51.384Z,4148.00
2023-04-15T10:20:51.437Z,4152.00
2023-04-15T10:21:51.477Z,4159.00
2023-04-15T10:22:51.535Z,4165.00
2023-04-15T10:23:51.586Z,4166.00
2023-04-15T10:24:51.614Z,4187.00
2023-04-15T10:25:51.666Z,4202.00
2023-04-15T10:26:51.694Z,4200.00
2023-04-15T10:27:51.743Z,4217.00
2023-04-15T10:28:51.803Z,4233.00
2023-04-15T10:29:51.853Z,4227.00
2023-04-15T10:30:51.905Z,4236.00
2023-04-15T10:31:52.001Z,4235.00
2023-04-15T10:32:52.025Z,4256.00
2023-04-15T10:33:52.036Z,4266.00
2023-04-15T10:34:54.220Z,4250.00
2023-04-15T10:35:52.119Z,4258.00
2023-04-15T10:36:52.163Z,4263.00
2023-04-15T10:37:52.156Z,4263.00
2023-04-15T10:38:52.152Z,4267.00
2023-04-15T10:39:52.142Z,4275.00
2023-04-15T10:40:52.122Z,4287.00
2023-04-15T10:41:52.114Z,4303.00
2023-04-15T10:42:52.104Z,4305.00
2023-04-15T10:43:52.085Z,4289.00
2023-04-15T10:44:52.096Z,4309.00
2023-04-15T10:45:52.073Z,4311.00
2023-04-15T10:46:52.139Z,4309.00
2023-04-15T10:47:52.083Z,4315.00
2023-04-15T10:48:52.061Z,4317.00
2023-04-15T10:49:52.066Z,4310.00
2023-04-15T10:50:52.052Z,4310.00
2023-04-15T10:51:52.056Z,4312.00
2023-04-15T10:52:52.030Z,4320.00
2023-04-15T10:53:52.021Z,4328.00
2023-04-15T10:54:52.020Z,4339.00
2023-04-15T10:55:52.000Z,4349.00
2023-04-15T10:56:51.994Z,4359.00
2023-04-15T10:57:51.972Z,4348.00
2023-04-15T10:58:51.962Z,4342.00
2023-04-15T10:59:51.966Z,4341.00
2023-04-15T11:00:51.930Z,4349.00
2023-04-15T11:01:52.094Z,4351.00
2023-04-15T11:02:52.034Z,4356.00
2023-04-15T11:03:52.186Z,4362.00
2023-04-15T11:04:52.046Z,4348.00
2023-04-15T11:05:52.043Z,4364.00
2023-04-15T11:06:52.081Z,4356.00
2023-04-15T11:07:52.113Z,4360.00
2023-04-15T11:08:52.176Z,4360.00
2023-04-15T11:09:52.199Z,4354.00
2023-04-15T11:10:52.226Z,4352.00
2023-04-15T11:11:52.266Z,4357.00
2023-04-15T11:12:52.295Z,4351.00
2023-04-15T11:13:52.324Z,4361.00
2023-04-15T11:14:52.373Z,4346.00
2023-04-15T11:15:52.417Z,4339.00
2023-04-15T11:16:52.500Z,4353.00
2023-04-15T11:17:52.533Z,4351.00
2023-04-15T11:18:52.524Z,4343.00
2023-04-15T11:19:52.570Z,4348.00
2023-04-15T11:20:52.625Z,4352.00
2023-04-15T11:21:52.643Z,4351.00
2023-04-15T11:22:52.681Z,4343.00
2023-04-15T11:23:53.669Z,4345.00
2023-04-15T11:24:52.656Z,4346.00
2023-04-15T11:25:52.637Z,4349.00
2023-04-15T11:26:52.621Z,4358.00
2023-04-15T11:27:52.608Z,4357.00
2023-04-15T11:28:52.608Z,4356.00
2023-04-15T11:29:52.629Z,4366.00
2023-04-15T11:30:52.597Z,4369.00
2023-04-15T11:31:52.650Z,4359.00
2023-04-15T11:32:52.584Z,4362.00
2023-04-15T11:33:52.549Z,4366.00
2023-04-15T11:34:52.541Z,4343.00
2023-04-15T11:35:52.536Z,4356.00
2023-04-15T11:36:52.534Z,4355.00
2023-04-15T11:37:52.516Z,4349.00
2023-04-15T11:38:52.524Z,4346.00
2023-04-15T11:39:52.584Z,4343.00
2023-04-15T11:40:52.621Z,4353.00
2023-04-15T11:41:52.648Z,4330.00
2023-04-15T11:42:52.682Z,4348.00
2023-04-15T11:43:52.729Z,4332.00
2023-04-15T11:44:52.752Z,4342.00
2023-04-15T11:45:52.968Z,4343.00
2023-04-15T11:46:52.828Z,4335.00
2023-04-15T11:47:52.888Z,4330.00
2023-04-15T11:48:52.908Z,4348.00
2023-04-15T11:49:52.950Z,4336.00
2023-04-15T11:50:53.004Z,4327.00
2023-04-15T11:51:53.026Z,4329.00
2023-04-15T11:52:53.097Z,4323.00
2023-04-15T11:53:53.112Z,4325.00
2023-04-15T11:54:53.143Z,4324.00
2023-04-15T11:55:53.169Z,4322.00
2023-04-15T11:56:53.220Z,4315.00
2023-04-15T11:57:53.256Z,4323.00
2023-04-15T11:58:53.297Z,4322.00
2023-04-15T11:59:53.336Z,4322.00
2023-04-15T12:00:53.370Z,4330.00
2023-04-15T12:01:53.439Z,4318.00
2023-04-15T12:02:53.604Z,4320.00
2023-04-15T12:03:53.582Z,4300.00
2023-04-15T12:04:53.629Z,4298.00
2023-04-15T12:05:53.516Z,4308.00
2023-04-15T12:06:53.549Z,4316.00
2023-04-15T12:07:53.556Z,4308.00
2023-04-15T12:08:53.580Z,4300.00
2023-04-15T12:09:53.614Z,4297.00
2023-04-15T12:10:53.637Z,4303.00
2023-04-15T12:11:53.654Z,4298.00
2023-04-15T12:12:53.686Z,4299.00
2023-04-15T12:13:53.689Z,4294.00
2023-04-15T12:14:53.710Z,4290.00